Time,TemperatureF,DewpointF,PressureIn,WindDirection,WindDirectionDegrees,WindSpeedMPH,WindSpeedGustMPH,Humidity,HourlyPrecipIn,Conditions,Clouds,dailyrainin,SolarRadiationWatts/m^2,SoftwareType,DateUTC
2013-03-28 00:04:00,52.8,52.0,30.02,SW,218,5.0,6.0,98,0.00,,,0.00,0,weatherlink.com 1.10,2013-03-28 07:04:00,
2013-03-28 00:19:00,52.7,52.0,30.02,WSW,257,0.0,3.0,98,0.00,,,0.00,0,weatherlink.com 1.10,2013-03-28 07:19:00,
2013-03-28 00:34:00,52.8,52.0,30.02,SW,234,0.0,3.0,98,0.00,,,0.00,0,weatherlink.com 1.10,2013-03-28 07:34:00,
2013-03-28 00:49:00,52.8,52.0,30.02,SSE,156,2.0,6.0,98,0.00,,,0.00,0,weatherlink.com 1.10,2013-03-28 07:49:00,
2013-03-28 01:04:00,52.8,52.0,30.02,SW,217,4.0,6.0,98,0.00,,,0.00,0,weatherlink.com 1.10,2013-03-28 08:04:00,
2013-03-28 01:19:00,52.8,52.0,30.02,SSE,163,2.0,5.0,98,0.00,,,0.00,0,weatherlink.com 1.10,2013-03-28 08:19:00,
2013-03-28 01:34:00,52.8,52.0,30.02,SSW,192,1.0,4.0,98,0.00,,,0.00,0,weatherlink.com 1.10,2013-03-28 08:34:00,
2013-03-28 01:49:00,52.8,52.0,30.02,SSW,192,2.0,3.0,98,0.00,,,0.00,0,weatherlink.com 1.10,2013-03-28 08:49:00,
2013-03-28 02:04:00,52.7,52.0,30.02,SW,226,0.0,4.0,98,0.00,,,0.00,0,weatherlink.com 1.10,2013-03-28 09:04:00,
2013-03-28 02:19:00,52.6,52.0,30.02,SSW,207,5.0,9.0,98,0.00,,,0.00,0,weatherlink.com 1.10,2013-03-28 09:19:00,
2013-03-28 02:34:00,52.6,52.0,30.02,SW,222,1.0,5.0,98,0.00,,,0.00,0,weatherlink.com 1.10,2013-03-28 09:34:00,
2013-03-28 02:49:00,52.7,52.0,30.02,SW,227,1.0,4.0,98,0.00,,,0.00,0,weatherlink.com 1.10,2013-03-28 09:49:00,
2013-03-28 03:04:00,52.7,52.0,30.02,WSW,242,0.0,4.0,98,0.00,,,0.00,0,weatherlink.com 1.10,2013-03-28 10:04:00,
2013-03-28 03:19:00,52.8,52.0,30.02,SW,230,1.0,3.0,98,0.00,,,0.00,0,weatherlink.com 1.10,2013-03-28 10:19:00,
2013-03-28 03:34:00,52.9,52.0,30.01,SE,124,0.0,1.0,98,0.00,,,0.00,0,weatherlink.com 1.10,2013-03-28 10:34:00,
2013-03-28 03:49:00,52.9,52.0,30.01,ESE,119,0.0,1.0,98,0.00,,,0.00,0,weatherlink.com 1.10,2013-03-28 10:49:00,
2013-03-28 04:04:00,52.8,52.0,30.01,SSW,210,0.0,0.0,98,0.00,,,0.00,0,weatherlink.com 1.10,2013-03-28 11:04:00,
2013-03-28 04:19:00,52.8,52.0,30.01,SW,217,0.0,1.0,98,0.00,,,0.00,0,weatherlink.com 1.10,2013-03-28 11:19:00,
2013-03-28 04:34:00,52.9,52.0,30.01,SSE,153,0.0,2.0,98,0.00,,,0.00,0,weatherlink.com 1.10,2013-03-28 11:34:00,
2013-03-28 04:49:00,53.0,53.0,30.01,SW,215,0.0,1.0,98,0.00,,,0.00,0,weatherlink.com 1.10,2013-03-28 11:49:00,
2013-03-28 05:04:00,53.0,53.0,30.02,SW,217,0.0,1.0,98,0.00,,,0.00,0,weatherlink.com 1.10,2013-03-28 12:04:00,
2013-03-28 05:19:00,53.1,53.0,30.02,SSE,167,0.0,2.0,98,0.00,,,0.00,0,weatherlink.com 1.10,2013-03-28 12:19:00,
2013-03-28 05:34:00,53.0,53.0,30.02,SW,232,0.0,2.0,98,0.00,,,0.00,0,weatherlink.com 1.10,2013-03-28 12:34:00,
2013-03-28 05:49:00,52.9,52.0,30.02,WSW,254,0.0,2.0,98,0.00,,,0.00,0,weatherlink.com 1.10,2013-03-28 12:49:00,
2013-03-28 06:04:00,52.9,52.0,30.02,SW,222,1.0,2.0,98,0.00,,,0.00,0,weatherlink.com 1.10,2013-03-28 13:04:00,
2013-03-28 06:19:00,52.8,52.0,30.02,SW,221,0.0,2.0,98,0.00,,,0.00,0,weatherlink.com 1.10,2013-03-28 13:19:00,
2013-03-28 06:34:00,52.9,52.0,30.02,SSE,160,0.0,3.0,98,0.00,,,0.00,0,weatherlink.com 1.10,2013-03-28 13:34:00,
2013-03-28 06:49:00,52.9,52.0,30.02,SSE,168,0.0,0.0,98,0.00,,,0.00,0,weatherlink.com 1.10,2013-03-28 13:49:00,
2013-03-28 07:04:00,52.8,52.0,30.02,South,187,0.0,2.0,98,0.00,,,0.00,0,weatherlink.com 1.10,2013-03-28 14:04:00,
2013-03-28 07:19:00,52.9,52.0,30.03,SE,140,0.0,2.0,98,0.00,,,0.00,0,weatherlink.com 1.10,2013-03-28 14:19:00,
2013-03-28 07:34:00,52.9,52.0,30.04,WSW,252,0.0,1.0,98,0.00,,,0.00,0,weatherlink.com 1.10,2013-03-28 14:34:00,
2013-03-28 07:49:00,53.1,53.0,30.05,SW,222,0.0,2.0,98,0.00,,,0.00,0,weatherlink.com 1.10,2013-03-28 14:49:00,
2013-03-28 08:04:00,53.3,53.0,30.05,SW,225,0.0,1.0,98,0.00,,,0.00,0,weatherlink.com 1.10,2013-03-28 15:04:00,
2013-03-28 08:20:00,53.5,53.0,30.06,SSW,205,0.0,2.0,98,0.00,,,0.00,0,weatherlink.com 1.10,2013-03-28 15:20:00,
2013-03-28 08:35:00,53.6,53.0,30.07,South,188,0.0,3.0,97,0.00,,,0.00,0,weatherlink.com 1.10,2013-03-28 15:35:00,
2013-03-28 08:50:00,53.9,53.0,30.07,SSE,165,1.0,3.0,97,0.00,,,0.00,0,weatherlink.com 1.10,2013-03-28 15:50:00,
2013-03-28 09:05:00,54.0,53.0,30.07,SW,217,2.0,6.0,97,0.00,,,0.00,0,weatherlink.com 1.10,2013-03-28 16:05:00,
2013-03-28 09:20:00,54.2,53.0,30.08,SSW,202,2.0,5.0,96,0.00,,,0.00,0,weatherlink.com 1.10,2013-03-28 16:20:00,
2013-03-28 09:35:00,54.3,53.0,30.08,SSW,210,3.0,8.0,95,0.00,,,0.00,0,weatherlink.com 1.10,2013-03-28 16:35:00,
2013-03-28 09:50:00,54.7,53.0,30.07,SW,221,2.0,8.0,94,0.00,,,0.00,0,weatherlink.com 1.10,2013-03-28 16:50:00,
2013-03-28 10:05:00,55.6,54.0,30.07,SW,222,0.0,3.0,93,0.00,,,0.00,0,weatherlink.com 1.10,2013-03-28 17:05:00,
2013-03-28 10:20:00,56.0,54.0,30.08,SSW,195,0.0,2.0,91,0.00,,,0.00,0,weatherlink.com 1.10,2013-03-28 17:20:00,
2013-03-28 10:35:00,57.9,55.0,30.07,SSE,152,0.0,1.0,90,0.00,,,0.00,0,weatherlink.com 1.10,2013-03-28 17:35:00,
2013-03-28 10:50:00,60.1,55.0,30.07,South,173,0.0,2.0,83,0.00,,,0.00,0,weatherlink.com 1.10,2013-03-28 17:50:00,
2013-03-28 11:05:00,60.3,54.0,30.07,SSW,195,0.0,2.0,81,0.00,,,0.00,0,weatherlink.com 1.10,2013-03-28 18:05:00,
2013-03-28 11:20:00,61.5,55.0,30.07,ESE,110,0.0,3.0,78,0.00,,,0.00,0,weatherlink.com 1.10,2013-03-28 18:20:00,
2013-03-28 11:35:00,62.9,55.0,30.07,SSW,210,1.0,1.0,75,0.00,,,0.00,0,weatherlink.com 1.10,2013-03-28 18:35:00,
2013-03-28 11:50:00,63.7,55.0,30.07,NNE,31,3.0,4.0,73,0.00,,,0.00,0,weatherlink.com 1.10,2013-03-28 18:50:00,
2013-03-28 12:05:00,63.2,55.0,30.07,WSW,241,1.0,5.0,74,0.00,,,0.00,0,weatherlink.com 1.10,2013-03-28 19:05:00,
2013-03-28 12:20:00,64.1,55.0,30.07,SW,217,2.0,6.0,72,0.00,,,0.00,0,weatherlink.com 1.10,2013-03-28 19:20:00,
2013-03-28 12:35:00,64.5,55.0,30.07,SW,226,3.0,6.0,72,0.00,,,0.00,0,weatherlink.com 1.10,2013-03-28 19:35:00,
2013-03-28 12:50:00,63.3,55.0,30.07,SW,217,1.0,5.0,73,0.00,,,0.00,0,weatherlink.com 1.10,2013-03-28 19:50:00,
2013-03-28 13:05:00,63.8,55.0,30.07,SSW,200,1.0,7.0,72,0.00,,,0.00,0,weatherlink.com 1.10,2013-03-28 20:05:00,
2013-03-28 13:20:00,64.1,54.0,30.07,SSE,160,5.0,9.0,70,0.00,,,0.00,0,weatherlink.com 1.10,2013-03-28 20:20:00,
2013-03-28 13:35:00,64.8,55.0,30.07,SSE,156,2.0,5.0,71,0.00,,,0.00,0,weatherlink.com 1.10,2013-03-28 20:35:00,
2013-03-28 13:50:00,66.2,56.0,30.07,ESE,115,4.0,6.0,69,0.00,,,0.00,0,weatherlink.com 1.10,2013-03-28 20:50:00,
2013-03-28 14:05:00,67.3,55.0,30.07,SSW,199,0.0,6.0,64,0.00,,,0.00,0,weatherlink.com 1.10,2013-03-28 21:05:00,
2013-03-28 14:20:00,66.8,55.0,30.06,SSW,196,4.0,7.0,65,0.00,,,0.00,0,weatherlink.com 1.10,2013-03-28 21:20:00,
2013-03-28 14:35:00,65.9,55.0,30.07,SE,138,3.0,9.0,68,0.00,,,0.00,0,weatherlink.com 1.10,2013-03-28 21:35:00,
2013-03-28 14:50:00,65.0,55.0,30.06,South,175,4.0,7.0,71,0.00,,,0.00,0,weatherlink.com 1.10,2013-03-28 21:50:00,
2013-03-28 15:05:00,65.3,55.0,30.05,SE,138,2.0,6.0,70,0.00,,,0.00,0,weatherlink.com 1.10,2013-03-28 22:05:00,
2013-03-28 15:21:00,66.7,56.0,30.05,South,169,4.0,6.0,68,0.00,,,0.00,0,weatherlink.com 1.10,2013-03-28 22:21:00,
2013-03-28 15:35:00,66.8,56.0,30.05,ESE,121,3.0,7.0,68,0.00,,,0.00,0,weatherlink.com 1.10,2013-03-28 22:35:00,
2013-03-28 15:51:00,65.2,55.0,30.04,ESE,118,2.0,6.0,70,0.00,,,0.00,0,weatherlink.com 1.10,2013-03-28 22:51:00,
2013-03-28 16:06:00,66.8,55.0,30.04,SSE,162,2.0,4.0,67,0.00,,,0.00,0,weatherlink.com 1.10,2013-03-28 23:06:00,
2013-03-28 16:21:00,66.3,55.0,30.04,SSW,209,3.0,6.0,67,0.00,,,0.00,0,weatherlink.com 1.10,2013-03-28 23:21:00,
2013-03-28 16:36:00,65.0,55.0,30.04,South,181,3.0,8.0,69,0.00,,,0.00,0,weatherlink.com 1.10,2013-03-28 23:36:00,
2013-03-28 16:51:00,64.2,54.0,30.04,South,171,1.0,7.0,70,0.00,,,0.00,0,weatherlink.com 1.10,2013-03-28 23:51:00,
2013-03-28 17:06:00,65.0,55.0,30.04,SW,225,4.0,6.0,69,0.00,,,0.00,0,weatherlink.com 1.10,2013-03-29 00:06:00,
2013-03-28 17:21:00,64.1,55.0,30.04,SSE,160,4.0,7.0,71,0.00,,,0.00,0,weatherlink.com 1.10,2013-03-29 00:21:00,
2013-03-28 17:36:00,63.5,54.0,30.04,SW,215,4.0,8.0,72,0.00,,,0.00,0,weatherlink.com 1.10,2013-03-29 00:36:00,
2013-03-28 17:51:00,63.3,55.0,30.04,SW,218,4.0,6.0,73,0.00,,,0.00,0,weatherlink.com 1.10,2013-03-29 00:51:00,
2013-03-28 18:06:00,63.0,55.0,30.04,East,86,3.0,8.0,74,0.00,,,0.00,0,weatherlink.com 1.10,2013-03-29 01:06:00,
2013-03-28 18:21:00,61.8,53.0,30.04,SSW,199,2.0,5.0,74,0.00,,,0.00,0,weatherlink.com 1.10,2013-03-29 01:21:00,
2013-03-28 18:36:00,61.4,53.0,30.05,SE,141,2.0,5.0,75,0.00,,,0.00,0,weatherlink.com 1.10,2013-03-29 01:36:00,
2013-03-28 19:06:00,60.0,53.0,30.05,ESE,121,4.0,5.0,78,0.00,,,0.00,0,weatherlink.com 1.10,2013-03-29 02:06:00,
2013-03-28 21:06:00,55.0,51.0,30.07,SE,126,1.0,4.0,87,0.00,,,0.00,0,weatherlink.com 1.10,2013-03-29 04:06:00,
2013-03-28 21:51:00,54.9,52.0,30.08,ESE,119,0.0,3.0,88,0.00,,,0.00,0,weatherlink.com 1.10,2013-03-29 04:51:00,
2013-03-28 22:06:00,54.7,51.0,30.09,ESE,113,0.0,1.0,88,0.00,,,0.00,0,weatherlink.com 1.10,2013-03-29 05:06:00,
2013-03-28 22:21:00,54.3,51.0,30.09,ESE,103,0.0,0.0,88,0.00,,,0.00,0,weatherlink.com 1.10,2013-03-29 05:21:00,
2013-03-28 22:36:00,54.1,51.0,30.09,ESE,105,0.0,1.0,89,0.00,,,0.00,0,weatherlink.com 1.10,2013-03-29 05:36:00,
2013-03-28 23:22:00,53.3,51.0,30.08,SE,136,0.0,0.0,90,0.00,,,0.00,0,weatherlink.com 1.10,2013-03-29 06:22:00,
2013-03-28 23:51:00,52.6,50.0,30.08,SE,134,0.0,0.0,91,0.00,,,0.00,0,weatherlink.com 1.10,2013-03-29 06:51:00,